createdAt,value
2022-08-21T00:00:20.809Z,99099.34
2022-08-21T00:03:09.605Z,99100.28
2022-08-21T00:05:40.535Z,99095.72
2022-08-21T00:08:07.748Z,99089.53
2022-08-21T00:10:34.877Z,99091.75
2022-08-21T00:13:03.595Z,99085.59
2022-08-21T00:15:35.868Z,99084.88
2022-08-21T00:18:03.964Z,99092.06
2022-08-21T00:20:31.246Z,99087.06
2022-08-21T00:22:59.013Z,99086.53
2022-08-21T00:25:27.152Z,99079.94
2022-08-21T00:27:55.131Z,99086.53
2022-08-21T00:30:23.845Z,99088.69
2022-08-21T00:32:51.242Z,99089.44
2022-08-21T00:35:22.048Z,99090.69
2022-08-21T00:37:50.269Z,99086.31
2022-08-21T00:40:22.612Z,99081.34
2022-08-21T00:42:53.837Z,99079.19
2022-08-21T00:45:22.975Z,99078.81
2022-08-21T00:47:51.867Z,99086.88
2022-08-21T00:50:21.698Z,99082.72
2022-08-21T00:52:51.461Z,99077.75
2022-08-21T00:55:19.772Z,99077.94
2022-08-21T00:57:52.434Z,99079.03
2022-08-21T01:02:54.208Z,99075.03
2022-08-21T01:05:21.240Z,99076.50
2022-08-21T01:07:48.020Z,99078.25
2022-08-21T01:10:23.829Z,99083.34
2022-08-21T01:12:53.347Z,99082.25
2022-08-21T01:15:21.531Z,99079.16
2022-08-21T01:17:50.156Z,99076.56
2022-08-21T01:20:17.613Z,99073.41
2022-08-21T01:22:44.471Z,99069.47
2022-08-21T01:25:12.298Z,99064.69
2022-08-21T01:27:39.681Z,99063.63
2022-08-21T01:30:16.142Z,99080.75
2022-08-21T01:32:43.437Z,99075.75
2022-08-21T01:35:10.738Z,99074.34
2022-08-21T01:37:37.472Z,99070.25
2022-08-21T01:40:06.305Z,99074.09
2022-08-21T01:42:32.989Z,99069.47
2022-08-21T01:45:00.317Z,99074.28
2022-08-21T01:47:26.964Z,99066.22
2022-08-21T01:49:54.181Z,99072.88
2022-08-21T01:52:20.883Z,99071.00
2022-08-21T01:54:54.922Z,99069.47
2022-08-21T01:57:22.148Z,99069.09
2022-08-21T01:59:52.631Z,99068.03
2022-08-21T02:02:19.322Z,99070.81
2022-08-21T02:04:45.953Z,99068.53
2022-08-21T02:07:12.681Z,99073.91
2022-08-21T02:09:40.185Z,99069.59
2022-08-21T02:12:07.275Z,99070.06
2022-08-21T02:14:33.950Z,99065.56
2022-08-21T02:17:08.943Z,99067.06
2022-08-21T02:19:40.182Z,99059.09
2022-08-21T02:22:09.598Z,99056.25
2022-08-21T02:24:37.080Z,99067.91
2022-08-21T02:27:24.656Z,99060.06
2022-08-21T02:29:53.844Z,99048.88
2022-08-21T02:32:21.028Z,99051.53
2022-08-21T02:34:47.781Z,99055.38
2022-08-21T02:37:14.387Z,99057.38
2022-08-21T02:39:40.999Z,99059.03
2022-08-21T02:42:07.923Z,99060.38
2022-08-21T02:44:34.920Z,99060.84
2022-08-21T02:47:01.806Z,99058.66
2022-08-21T02:49:28.434Z,99046.88
2022-08-21T02:51:55.140Z,99050.06
2022-08-21T02:54:22.300Z,99052.75
2022-08-21T02:56:48.858Z,99049.34
2022-08-21T02:59:15.458Z,99050.78
2022-08-21T03:01:42.145Z,99048.75
2022-08-21T03:04:08.837Z,99051.72
2022-08-21T03:06:35.436Z,99048.09
2022-08-21T03:09:02.077Z,99045.59
2022-08-21T03:11:28.842Z,99043.13
2022-08-21T03:13:55.589Z,99051.75
2022-08-21T03:16:22.302Z,99051.25
2022-08-21T03:18:49.006Z,99053.41
2022-08-21T03:21:15.608Z,99049.97
2022-08-21T03:23:44.084Z,99046.97
2022-08-21T03:26:11.868Z,99055.09
2022-08-21T03:28:39.914Z,99056.78
2022-08-21T03:31:06.972Z,99052.97
2022-08-21T03:33:33.935Z,99051.25
2022-08-21T03:36:04.110Z,99057.53
2022-08-21T03:38:32.136Z,99058.56
2022-08-21T03:40:59.250Z,99057.03
2022-08-21T03:43:25.976Z,99054.84
2022-08-21T03:45:52.756Z,99050.06
2022-08-21T03:48:20.190Z,99064.78
2022-08-21T03:50:48.365Z,99061.59
2022-08-21T03:53:17.679Z,99061.03
2022-08-21T03:55:47.695Z,99060.66
2022-08-21T03:58:17.758Z,99058.31
2022-08-21T04:00:49.345Z,99058.69
2022-08-21T04:03:16.730Z,99071.41
2022-08-21T04:05:44.142Z,99074.03
2022-08-21T04:08:10.752Z,99078.50
2022-08-21T04:10:39.329Z,99077.41
2022-08-21T04:13:07.199Z,99078.59
2022-08-21T04:15:34.429Z,99077.75
2022-08-21T04:18:01.358Z,99078.59
2022-08-21T04:20:28.092Z,99083.88
2022-08-21T04:22:55.182Z,99087.88
2022-08-21T04:25:23.351Z,99094.31
2022-08-21T04:27:50.149Z,99105.09
2022-08-21T04:30:17.791Z,99099.91
2022-08-21T04:32:46.246Z,99100.97
2022-08-21T04:35:13.829Z,99094.84
2022-08-21T04:37:42.151Z,99098.78
2022-08-21T04:40:11.168Z,99100.78
2022-08-21T04:42:47.806Z,99108.09
2022-08-21T04:45:26.189Z,99107.81
2022-08-21T04:47:54.496Z,99107.97
2022-08-21T04:50:42.981Z,99103.97
2022-08-21T04:53:29.339Z,99100.97
2022-08-21T04:55:58.152Z,99107.44
2022-08-21T04:58:26.555Z,99111.25
2022-08-21T05:00:55.408Z,99113.91
2022-08-21T05:03:22.770Z,99117.41
2022-08-21T05:05:50.066Z,99121.34
2022-08-21T05:08:20.759Z,99119.69
2022-08-21T05:10:47.690Z,99123.69
2022-08-21T05:13:14.873Z,99125.97
2022-08-21T05:15:41.905Z,99121.16
2022-08-21T05:18:08.764Z,99126.13
2022-08-21T05:20:35.960Z,99130.75
2022-08-21T05:23:09.233Z,99133.88
2022-08-21T05:25:36.392Z,99130.88
2022-08-21T05:28:03.391Z,99132.91
2022-08-21T05:30:30.085Z,99130.88
2022-08-21T05:32:58.207Z,99137.50
2022-08-21T05:35:25.115Z,99133.13
2022-08-21T05:37:51.773Z,99135.25
2022-08-21T05:40:21.503Z,99133.13
2022-08-21T05:42:54.385Z,99141.22
2022-08-21T05:45:31.616Z,99131.78
2022-08-21T05:48:23.871Z,99136.09
2022-08-21T05:50:52.859Z,99140.38
2022-08-21T05:53:21.017Z,99129.78
2022-08-21T05:55:48.176Z,99129.13
2022-08-21T05:58:16.687Z,99139.03
2022-08-21T06:00:44.818Z,99145.28
2022-08-21T06:03:16.665Z,99133.66
2022-08-21T06:05:43.580Z,99124.31
2022-08-21T06:08:10.349Z,99135.22
2022-08-21T06:10:37.047Z,99139.81
2022-08-21T06:13:03.854Z,99137.44
2022-08-21T06:15:30.449Z,99137.34
2022-08-21T06:17:57.124Z,99136.56
2022-08-21T06:20:24.028Z,99138.78
2022-08-21T06:22:50.901Z,99141.84
2022-08-21T06:25:17.716Z,99138.31
2022-08-21T06:27:44.401Z,99141.72
2022-08-21T06:30:12.042Z,99143.97
2022-08-21T06:32:38.799Z,99148.28
2022-08-21T06:35:07.338Z,99146.31
2022-08-21T06:37:34.395Z,99148.16
2022-08-21T06:40:01.056Z,99152.41
2022-08-21T06:42:29.225Z,99141.72
2022-08-21T06:44:55.920Z,99148.38
2022-08-21T06:47:22.565Z,99141.97
2022-08-21T06:49:49.178Z,99141.97
2022-08-21T06:52:16.494Z,99138.13
2022-08-21T06:54:43.232Z,99145.31
2022-08-21T06:57:09.971Z,99140.56
2022-08-21T06:59:36.781Z,99133.25
2022-08-21T07:02:03.948Z,99131.31
2022-08-21T07:04:31.035Z,99134.94
2022-08-21T07:06:57.723Z,99129.75
2022-08-21T07:09:24.918Z,99129.44
2022-08-21T07:11:53.719Z,99129.81
2022-08-21T07:14:20.747Z,99126.88
2022-08-21T07:16:48.548Z,99134.81
2022-08-21T07:19:15.204Z,99129.25
2022-08-21T07:21:41.898Z,99119.28
2022-08-21T07:24:08.593Z,99125.50
2022-08-21T07:26:35.230Z,99119.56
2022-08-21T07:29:02.034Z,99123.59
2022-08-21T07:31:29.173Z,99114.06
2022-08-21T07:33:55.910Z,99126.34
2022-08-21T07:36:22.836Z,99118.38
2022-08-21T07:38:52.691Z,99114.31
2022-08-21T07:41:25.462Z,99110.81
2022-08-21T07:43:52.792Z,99105.97
2022-08-21T07:46:20.000Z,99103.94
2022-08-21T07:48:46.630Z,99093.91
2022-08-21T07:51:16.162Z,99104.00
2022-08-21T07:53:42.871Z,99098.09
2022-08-21T07:56:09.983Z,99100.38
2022-08-21T07:58:36.835Z,99095.22
2022-08-21T08:01:03.620Z,99092.34
2022-08-21T08:03:30.376Z,99088.19
2022-08-21T08:05:58.019Z,99086.59
2022-08-21T08:08:25.144Z,99092.44
2022-08-21T08:10:52.223Z,99088.75
2022-08-21T08:13:18.960Z,99083.34
2022-08-21T08:15:45.702Z,99085.84
2022-08-21T08:18:12.561Z,99089.03
2022-08-21T08:20:39.235Z,99085.25
2022-08-21T08:23:05.893Z,99078.03
2022-08-21T08:25:36.323Z,99078.84
2022-08-21T08:28:17.218Z,99077.50
2022-08-21T08:30:46.034Z,99077.16
2022-08-21T08:33:12.850Z,99067.50
2022-08-21T08:35:41.365Z,99065.34
2022-08-21T08:38:09.601Z,99062.47
2022-08-21T08:40:43.219Z,99071.28
2022-08-21T08:43:15.020Z,99068.75
2022-08-21T08:45:46.048Z,99057.22
2022-08-21T08:48:16.418Z,99060.19
2022-08-21T08:51:12.341Z,99051.19
2022-08-21T08:53:54.896Z,99061.00
2022-08-21T08:56:27.449Z,99060.13
2022-08-21T08:58:55.498Z,99055.75
2022-08-21T09:01:22.248Z,99055.75
2022-08-21T09:03:51.220Z,99044.66
2022-08-21T09:06:38.842Z,99049.38
2022-08-21T09:09:31.013Z,99049.38
2022-08-21T09:12:27.394Z,99040.34
2022-08-21T09:15:31.183Z,99043.75
2022-08-21T09:18:11.371Z,99045.66
2022-08-21T09:21:04.388Z,99041.22
2022-08-21T09:23:50.943Z,99048.28
2022-08-21T09:26:21.265Z,99046.28
2022-08-21T09:28:54.625Z,99054.53
2022-08-21T09:31:33.911Z,99047.50
2022-08-21T09:34:13.137Z,99048.75
2022-08-21T09:36:48.670Z,99043.97
2022-08-21T09:39:28.431Z,99042.47
2022-08-21T09:42:00.298Z,99036.44
2022-08-21T09:44:33.258Z,99051.19
2022-08-21T09:47:00.390Z,99037.81
2022-08-21T09:49:32.297Z,99048.28
2022-08-21T09:52:00.118Z,99036.78
2022-08-21T09:54:36.214Z,99040.69
2022-08-21T09:57:42.665Z,99038.25
2022-08-21T10:00:26.776Z,99031.03
2022-08-21T10:02:54.115Z,99030.22
2022-08-21T10:05:26.809Z,99030.59
2022-08-21T10:07:54.190Z,99020.81
2022-08-21T10:10:31.900Z,99020.31
2022-08-21T10:13:15.213Z,99026.63
2022-08-21T10:16:17.503Z,99021.81
2022-08-21T10:18:53.014Z,99023.38
2022-08-21T10:21:33.133Z,99016.25
2022-08-21T10:24:30.524Z,99027.34
2022-08-21T10:27:28.636Z,99009.44
2022-08-21T10:30:00.953Z,99017.16
2022-08-21T10:33:08.702Z,99012.31
2022-08-21T10:35:45.636Z,99009.16
2022-08-21T10:39:23.387Z,99010.31
2022-08-21T10:42:33.424Z,99007.66
2022-08-21T10:45:15.826Z,99003.41
2022-08-21T10:47:52.904Z,99014.28
2022-08-21T10:50:43.568Z,99008.09
2022-08-21T10:53:23.657Z,99000.78
2022-08-21T10:56:04.282Z,99003.38
2022-08-21T10:58:35.129Z,99004.94
2022-08-21T11:01:34.893Z,98997.25
2022-08-21T11:04:24.739Z,98997.38
2022-08-21T11:07:45.898Z,98993.69
2022-08-21T11:10:40.771Z,98988.13
2022-08-21T11:13:39.024Z,98985.59
2022-08-21T11:16:39.150Z,98984.47
2022-08-21T11:19:33.166Z,98983.22
2022-08-21T11:22:22.894Z,98988.31
2022-08-21T11:25:15.649Z,98994.09
2022-08-21T11:27:46.793Z,98981.69
2022-08-21T11:30:14.236Z,98992.81
2022-08-21T11:33:08.750Z,98979.16
2022-08-21T11:35:49.765Z,98981.69
2022-08-21T11:38:54.714Z,98970.56
2022-08-21T11:41:28.845Z,98983.09
2022-08-21T11:44:11.043Z,98972.00
2022-08-21T11:47:06.034Z,98967.91
2022-08-21T11:49:47.664Z,98970.25
2022-08-21T11:52:26.018Z,98966.22
2022-08-21T11:55:04.433Z,98971.66
2022-08-21T11:57:36.289Z,98973.47
2022-08-21T12:00:18.529Z,98972.06
2022-08-21T12:02:54.870Z,98970.22
2022-08-21T12:05:29.830Z,98972.78
2022-08-21T12:08:14.884Z,98968.13
2022-08-21T12:10:47.620Z,98960.34
2022-08-21T12:13:36.669Z,98965.81
2022-08-21T12:16:17.227Z,98972.38
2022-08-21T12:18:44.395Z,98969.09
2022-08-21T12:21:26.792Z,98964.69
2022-08-21T12:24:45.684Z,98965.31
2022-08-21T12:27:31.306Z,98961.59
2022-08-21T12:30:01.459Z,98951.16
2022-08-21T12:32:46.675Z,98953.16
2022-08-21T12:35:24.736Z,98947.75
2022-08-21T12:38:02.191Z,98939.19
2022-08-21T12:40:32.926Z,98933.84
2022-08-21T12:43:02.084Z,98940.50
2022-08-21T12:45:42.651Z,98944.94
2022-08-21T12:48:18.946Z,98936.44
2022-08-21T12:50:57.721Z,98932.16
2022-08-21T12:53:41.820Z,98929.63
2022-08-21T12:56:14.701Z,98937.38
2022-08-21T12:58:46.830Z,98937.69
2022-08-21T13:01:31.315Z,98939.19
2022-08-21T13:04:08.832Z,98937.00
2022-08-21T13:06:41.095Z,98939.16
2022-08-21T13:09:11.540Z,98930.09
2022-08-21T13:11:43.215Z,98942.16
2022-08-21T13:14:24.957Z,98935.00
2022-08-21T13:16:55.848Z,98939.34
2022-08-21T13:19:24.138Z,98939.88
2022-08-21T13:21:51.413Z,98925.53
2022-08-21T13:24:43.584Z,98933.69
2022-08-21T13:27:40.093Z,98925.88
2022-08-21T13:30:15.957Z,98928.81
2022-08-21T13:32:52.282Z,98933.63
2022-08-21T13:35:26.822Z,98925.25
2022-08-21T13:37:53.870Z,98931.16
2022-08-21T13:40:29.511Z,98926.03
2022-08-21T13:42:57.561Z,98921.31
2022-08-21T13:45:27.985Z,98931.53
2022-08-21T13:47:55.317Z,98930.19
2022-08-21T13:50:24.274Z,98927.53
2022-08-21T13:53:02.738Z,98927.56
2022-08-21T13:55:38.689Z,98930.34
2022-08-21T13:58:06.014Z,98920.44
2022-08-21T14:00:36.804Z,98920.94
2022-08-21T14:03:07.602Z,98920.50
2022-08-21T14:05:36.749Z,98923.28
2022-08-21T14:08:13.038Z,98921.75
2022-08-21T14:10:48.262Z,98915.84
2022-08-21T14:13:44.246Z,98921.03
2022-08-21T14:16:20.250Z,98915.59
2022-08-21T14:19:21.035Z,98904.78
2022-08-21T14:21:48.036Z,98909.22
2022-08-21T14:24:30.566Z,98903.88
2022-08-21T14:27:08.295Z,98908.69
2022-08-21T14:29:38.170Z,98905.56
2022-08-21T14:32:24.700Z,98905.06
2022-08-21T14:34:52.116Z,98903.72
2022-08-21T14:37:18.900Z,98903.97
2022-08-21T14:39:46.243Z,98896.75
2022-08-21T14:42:13.890Z,98891.34
2022-08-21T14:44:40.524Z,98901.81
2022-08-21T14:47:07.227Z,98893.16
2022-08-21T14:49:33.877Z,98889.03
2022-08-21T14:52:00.474Z,98892.03
2022-08-21T14:54:31.092Z,98899.59
2022-08-21T14:57:05.834Z,98900.03
2022-08-21T14:59:34.193Z,98896.59
2022-08-21T15:02:01.994Z,98888.50
2022-08-21T15:04:28.888Z,98891.78
2022-08-21T15:06:55.565Z,98887.31
2022-08-21T15:09:22.492Z,98895.09
2022-08-21T15:11:49.378Z,98878.97
2022-08-21T15:14:20.957Z,98884.22
2022-08-21T15:16:48.879Z,98889.91
2022-08-21T15:19:15.512Z,98886.09
2022-08-21T15:21:42.517Z,98884.88
2022-08-21T15:24:09.165Z,98882.75
2022-08-21T15:26:37.217Z,98892.25
2022-08-21T15:29:06.689Z,98889.78
2022-08-21T15:31:33.860Z,98895.88
2022-08-21T15:34:00.507Z,98882.47
2022-08-21T15:36:27.534Z,98879.47
2022-08-21T15:38:54.141Z,98888.59
2022-08-21T15:41:20.760Z,98879.53
2022-08-21T15:43:50.641Z,98886.75
2022-08-21T15:46:18.913Z,98874.38
2022-08-21T15:48:47.286Z,98881.38
2022-08-21T15:51:15.401Z,98877.22
2022-08-21T15:53:43.205Z,98880.00
2022-08-21T15:56:22.555Z,98875.88
2022-08-21T15:58:50.895Z,98876.75
2022-08-21T16:01:17.591Z,98877.66
2022-08-21T16:03:47.700Z,98879.78
2022-08-21T16:06:14.346Z,98871.59
2022-08-21T16:08:41.186Z,98878.25
2022-08-21T16:11:07.951Z,98870.09
2022-08-21T16:13:38.941Z,98871.03
2022-08-21T16:16:06.618Z,98862.94
2022-08-21T16:18:33.387Z,98870.59
2022-08-21T16:21:00.095Z,98869.72
2022-08-21T16:23:27.006Z,98870.16
2022-08-21T16:25:53.968Z,98871.97
2022-08-21T16:28:21.549Z,98873.06
2022-08-21T16:30:49.828Z,98872.56
2022-08-21T16:33:29.883Z,98867.31
2022-08-21T16:35:56.930Z,98872.31
2022-08-21T16:38:23.593Z,98872.94
2022-08-21T16:40:50.309Z,98870.44
2022-08-21T16:43:17.075Z,98869.34
2022-08-21T16:45:44.259Z,98870.53
2022-08-21T16:48:11.309Z,98865.44
2022-08-21T16:50:38.418Z,98868.25
2022-08-21T16:53:05.741Z,98867.59
2022-08-21T16:55:34.401Z,98863.13
2022-08-21T16:58:03.693Z,98859.63
2022-08-21T17:00:30.910Z,98864.16
2022-08-21T17:02:57.762Z,98864.91
2022-08-21T17:05:24.494Z,98870.06
2022-08-21T17:07:51.111Z,98861.16
2022-08-21T17:10:19.398Z,98862.06
2022-08-21T17:12:55.969Z,98864.44
2022-08-21T17:15:26.716Z,98861.00
2022-08-21T17:17:53.642Z,98861.69
2022-08-21T17:20:21.219Z,98865.59
2022-08-21T17:22:48.756Z,98858.47
2022-08-21T17:25:16.392Z,98867.53
2022-08-21T17:27:44.316Z,98868.84
2022-08-21T17:30:12.996Z,98862.69
2022-08-21T17:32:40.053Z,98868.31
2022-08-21T17:35:07.191Z,98867.84
2022-08-21T17:37:34.219Z,98868.25
2022-08-21T17:40:02.052Z,98869.44
2022-08-21T17:42:30.274Z,98869.22
2022-08-21T17:44:57.747Z,98864.75
2022-08-21T17:47:25.005Z,98859.78
2022-08-21T17:49:51.680Z,98868.69
2022-08-21T17:52:18.375Z,98865.81
2022-08-21T17:54:45.084Z,98861.38
2022-08-21T17:57:19.352Z,98857.84
2022-08-21T17:59:46.109Z,98861.00
2022-08-21T18:02:19.477Z,98856.00
2022-08-21T18:04:46.817Z,98856.94
2022-08-21T18:07:31.778Z,98865.34
2022-08-21T18:10:04.772Z,98868.53
2022-08-21T18:12:32.534Z,98856.06
2022-08-21T18:15:00.667Z,98865.84
2022-08-21T18:17:29.888Z,98851.84
2022-08-21T18:19:56.811Z,98864.59
2022-08-21T18:22:23.523Z,98867.63
2022-08-21T18:24:50.295Z,98866.09
2022-08-21T18:27:17.660Z,98867.72
2022-08-21T18:29:47.179Z,98869.44
2022-08-21T18:32:30.476Z,98868.28
2022-08-21T18:34:59.914Z,98878.88
2022-08-21T18:37:26.653Z,98873.56
2022-08-21T18:39:53.450Z,98879.97
2022-08-21T18:42:20.388Z,98877.38
2022-08-21T18:44:57.814Z,98875.06
2022-08-21T18:47:28.926Z,98884.88
2022-08-21T18:49:55.622Z,98888.38
2022-08-21T18:52:22.246Z,98880.91
2022-08-21T18:54:55.004Z,98893.75
2022-08-21T18:57:23.055Z,98892.59
2022-08-21T18:59:49.773Z,98893.16
2022-08-21T19:02:16.537Z,98892.59
2022-08-21T19:07:30.643Z,98904.66
2022-08-21T19:12:44.763Z,98911.16
2022-08-21T19:15:17.989Z,98909.22
2022-08-21T19:17:47.058Z,98913.13
2022-08-21T19:20:26.163Z,98911.56
2022-08-21T19:22:56.393Z,98910.03
2022-08-21T19:25:33.471Z,98920.09
2022-08-21T19:28:10.859Z,98924.44
2022-08-21T19:30:45.809Z,98919.56
2022-08-21T19:36:05.994Z,98935.25
2022-08-21T19:38:33.095Z,98934.91
2022-08-21T19:41:00.260Z,98935.59
2022-08-21T19:43:27.287Z,98932.56
2022-08-21T19:45:57.395Z,98940.63
2022-08-21T19:48:25.036Z,98933.06
2022-08-21T19:50:53.003Z,98928.84
2022-08-21T19:53:20.439Z,98929.38
2022-08-21T19:55:48.197Z,98942.13
2022-08-21T19:58:29.043Z,98944.22
2022-08-21T20:00:55.798Z,98939.53
2022-08-21T20:03:22.474Z,98938.88
2022-08-21T20:05:49.335Z,98925.97
2022-08-21T20:08:20.164Z,98933.78
2022-08-21T20:10:47.404Z,98935.84
2022-08-21T20:13:17.926Z,98937.72
2022-08-21T20:15:45.758Z,98934.44
2022-08-21T20:18:13.573Z,98937.69
2022-08-21T20:20:40.500Z,98940.41
2022-08-21T20:23:10.565Z,98940.16
2022-08-21T20:25:38.946Z,98946.75
2022-08-21T20:28:06.513Z,98953.09
2022-08-21T20:30:35.120Z,98954.94
2022-08-21T20:33:01.950Z,98954.09
2022-08-21T20:35:29.088Z,98952.06
2022-08-21T20:37:58.599Z,98962.72
2022-08-21T20:40:29.169Z,98952.69
2022-08-21T20:42:59.574Z,98958.94
2022-08-21T20:45:32.231Z,98956.91
2022-08-21T20:48:06.240Z,98967.56
2022-08-21T20:50:36.960Z,98962.16
2022-08-21T20:53:12.844Z,98969.19
2022-08-21T20:55:45.995Z,98963.84
2022-08-21T20:58:21.447Z,98964.66
2022-08-21T21:00:49.774Z,98970.84
2022-08-21T21:03:30.080Z,98969.25
2022-08-21T21:06:03.865Z,98973.97
2022-08-21T21:08:49.062Z,98972.59
2022-08-21T21:11:20.847Z,98974.19
2022-08-21T21:14:08.254Z,98968.09
2022-08-21T21:16:50.803Z,98966.38
2022-08-21T21:19:28.982Z,98969.34
2022-08-21T21:22:09.624Z,98966.50
2022-08-21T21:24:51.469Z,98973.50
2022-08-21T21:27:40.718Z,98977.34
2022-08-21T21:30:23.898Z,98975.13
2022-08-21T21:32:52.955Z,98970.31
2022-08-21T21:35:32.559Z,98972.66
2022-08-21T21:38:15.290Z,98978.22
2022-08-21T21:40:50.938Z,98982.59
2022-08-21T21:43:57.768Z,98986.28
2022-08-21T21:46:56.090Z,98980.25
2022-08-21T21:49:34.544Z,98986.78
2022-08-21T21:52:28.071Z,98982.00
2022-08-21T21:55:06.070Z,98986.75
2022-08-21T22:01:08.087Z,98987.78
2022-08-21T22:04:17.224Z,98988.00
2022-08-21T22:07:07.489Z,98993.22
2022-08-21T22:09:43.932Z,98988.97
2022-08-21T22:12:49.575Z,98999.06
2022-08-21T22:15:26.477Z,99003.88
2022-08-21T22:18:11.863Z,98996.00
2022-08-21T22:20:51.932Z,98998.97
2022-08-21T22:23:22.021Z,99003.53
2022-08-21T22:25:51.887Z,99000.34
2022-08-21T22:28:25.395Z,99011.91
2022-08-21T22:30:56.580Z,99006.81
2022-08-21T22:33:29.641Z,99012.91
2022-08-21T22:35:58.955Z,99008.97
2022-08-21T22:38:33.659Z,99010.72
2022-08-21T22:41:19.224Z,99012.22
2022-08-21T22:44:02.312Z,99011.22
2022-08-21T22:46:48.042Z,99022.47
2022-08-21T22:49:28.978Z,99022.06
2022-08-21T22:52:06.288Z,99016.72
2022-08-21T22:54:40.133Z,99023.50
2022-08-21T22:57:13.699Z,99024.44
2022-08-21T23:00:00.774Z,99019.06
2022-08-21T23:02:46.233Z,99023.94
2022-08-21T23:05:33.863Z,99021.28
2022-08-21T23:08:34.275Z,99021.16
2022-08-21T23:11:26.595Z,99017.44
2022-08-21T23:13:55.275Z,99006.72
2022-08-21T23:17:05.419Z,99018.34
2022-08-21T23:20:10.379Z,99010.81
2022-08-21T23:23:04.548Z,99009.34
2022-08-21T23:26:19.445Z,98992.88
2022-08-21T23:29:11.988Z,98998.25
2022-08-21T23:32:04.056Z,99002.75
2022-08-21T23:34:47.569Z,99005.94
2022-08-21T23:37:49.158Z,99003.44
2022-08-21T23:40:40.989Z,99013.53
2022-08-21T23:43:41.887Z,99017.03
2022-08-21T23:46:55.690Z,99020.28
2022-08-21T23:49:44.006Z,99015.16
2022-08-21T23:55:38.557Z,99010.16
2022-08-21T23:58:42.461Z,99009.31
